sensor_id;sensor_type;location;lat;lon;timestamp;P1;durP1;ratioP1;P2;durP2;ratioP2
8626;SDS011;4351;51.422;6.794;2023-05-10T00:01:22;10.73;;;8.47;;
8626;SDS011;4351;51.422;6.794;2023-05-10T00:03:50;12.47;;;9.27;;
8626;SDS011;4351;51.422;6.794;2023-05-10T00:06:18;13.67;;;8.93;;
8626;SDS011;4351;51.422;6.794;2023-05-10T00:08:48;12.07;;;9.17;;
8626;SDS011;4351;51.422;6.794;2023-05-10T00:11:15;10.13;;;7.90;;
8626;SDS011;4351;51.422;6.794;2023-05-10T00:13:45;11.40;;;9.03;;
8626;SDS011;4351;51.422;6.794;2023-05-10T00:16:13;11.53;;;8.83;;
8626;SDS011;4351;51.422;6.794;2023-05-10T00:18:41;11.53;;;8.90;;
8626;SDS011;4351;51.422;6.794;2023-05-10T00:21:09;12.77;;;8.93;;
8626;SDS011;4351;51.422;6.794;2023-05-10T00:23:37;12.03;;;8.73;;
8626;SDS011;4351;51.422;6.794;2023-05-10T00:26:06;12.53;;;8.70;;
8626;SDS011;4351;51.422;6.794;2023-05-10T00:28:36;12.40;;;8.23;;
8626;SDS011;4351;51.422;6.794;2023-05-10T00:31:04;13.17;;;9.03;;
8626;SDS011;4351;51.422;6.794;2023-05-10T00:33:32;14.47;;;8.97;;
8626;SDS011;4351;51.422;6.794;2023-05-10T00:36:01;11.30;;;8.57;;
8626;SDS011;4351;51.422;6.794;2023-05-10T00:38:30;12.13;;;8.90;;
8626;SDS011;4351;51.422;6.794;2023-05-10T00:40:58;12.10;;;8.70;;
8626;SDS011;4351;51.422;6.794;2023-05-10T00:43:31;13.67;;;9.03;;
8626;SDS011;4351;51.422;6.794;2023-05-10T00:45:59;9.57;;;7.67;;
8626;SDS011;4351;51.422;6.794;2023-05-10T00:48:28;11.87;;;8.60;;
8626;SDS011;4351;51.422;6.794;2023-05-10T00:50:57;13.10;;;9.33;;
8626;SDS011;4351;51.422;6.794;2023-05-10T00:53:25;11.17;;;8.00;;
8626;SDS011;4351;51.422;6.794;2023-05-10T00:55:54;12.33;;;8.67;;
8626;SDS011;4351;51.422;6.794;2023-05-10T00:58:24;13.27;;;8.10;;
8626;SDS011;4351;51.422;6.794;2023-05-10T01:00:56;12.63;;;9.33;;
8626;SDS011;4351;51.422;6.794;2023-05-10T01:03:25;12.97;;;9.00;;
8626;SDS011;4351;51.422;6.794;2023-05-10T01:05:54;13.80;;;8.97;;
8626;SDS011;4351;51.422;6.794;2023-05-10T01:08:23;12.03;;;8.90;;
8626;SDS011;4351;51.422;6.794;2023-05-10T01:10:52;13.47;;;10.33;;
8626;SDS011;4351;51.422;6.794;2023-05-10T01:13:23;13.93;;;9.87;;
8626;SDS011;4351;51.422;6.794;2023-05-10T01:15:59;14.57;;;10.37;;
8626;SDS011;4351;51.422;6.794;2023-05-10T01:18:29;13.10;;;9.80;;
8626;SDS011;4351;51.422;6.794;2023-05-10T01:21:03;12.77;;;9.63;;
8626;SDS011;4351;51.422;6.794;2023-05-10T01:23:44;14.80;;;9.77;;
8626;SDS011;4351;51.422;6.794;2023-05-10T01:26:37;11.93;;;9.03;;
8626;SDS011;4351;51.422;6.794;2023-05-10T01:32:44;15.53;;;10.03;;
8626;SDS011;4351;51.422;6.794;2023-05-10T01:35:18;11.63;;;8.80;;
8626;SDS011;4351;51.422;6.794;2023-05-10T01:37:52;11.90;;;9.00;;
8626;SDS011;4351;51.422;6.794;2023-05-10T01:40:29;11.23;;;8.90;;
8626;SDS011;4351;51.422;6.794;2023-05-10T01:43:00;14.17;;;9.93;;
8626;SDS011;4351;51.422;6.794;2023-05-10T01:45:31;13.53;;;9.77;;
8626;SDS011;4351;51.422;6.794;2023-05-10T01:48:06;14.77;;;10.10;;
8626;SDS011;4351;51.422;6.794;2023-05-10T01:50:43;13.60;;;9.90;;
8626;SDS011;4351;51.422;6.794;2023-05-10T01:53:17;12.37;;;9.27;;
8626;SDS011;4351;51.422;6.794;2023-05-10T01:55:59;16.53;;;10.83;;
8626;SDS011;4351;51.422;6.794;2023-05-10T01:58:39;13.07;;;9.57;;
8626;SDS011;4351;51.422;6.794;2023-05-10T02:01:25;15.83;;;10.43;;
8626;SDS011;4351;51.422;6.794;2023-05-10T02:04:09;13.37;;;9.47;;
8626;SDS011;4351;51.422;6.794;2023-05-10T02:06:51;11.30;;;8.80;;
8626;SDS011;4351;51.422;6.794;2023-05-10T02:09:24;12.00;;;9.10;;
8626;SDS011;4351;51.422;6.794;2023-05-10T02:12:01;14.00;;;9.83;;
8626;SDS011;4351;51.422;6.794;2023-05-10T02:14:42;17.00;;;10.57;;
8626;SDS011;4351;51.422;6.794;2023-05-10T02:17:28;13.97;;;10.23;;
8626;SDS011;4351;51.422;6.794;2023-05-10T02:20:17;14.40;;;10.73;;
8626;SDS011;4351;51.422;6.794;2023-05-10T02:23:01;14.30;;;10.47;;
8626;SDS011;4351;51.422;6.794;2023-05-10T02:25:38;14.87;;;10.47;;
8626;SDS011;4351;51.422;6.794;2023-05-10T02:28:15;15.57;;;11.53;;
8626;SDS011;4351;51.422;6.794;2023-05-10T02:30:55;18.93;;;12.57;;
8626;SDS011;4351;51.422;6.794;2023-05-10T02:33:31;17.53;;;11.97;;
8626;SDS011;4351;51.422;6.794;2023-05-10T02:36:15;15.60;;;11.63;;
8626;SDS011;4351;51.422;6.794;2023-05-10T02:38:52;16.30;;;12.23;;
8626;SDS011;4351;51.422;6.794;2023-05-10T02:41:35;16.87;;;11.57;;
8626;SDS011;4351;51.422;6.794;2023-05-10T02:44:14;18.33;;;12.53;;
8626;SDS011;4351;51.422;6.794;2023-05-10T02:46:58;17.67;;;12.10;;
8626;SDS011;4351;51.422;6.794;2023-05-10T02:49:41;16.37;;;11.77;;
8626;SDS011;4351;51.422;6.794;2023-05-10T02:52:21;19.83;;;12.50;;
8626;SDS011;4351;51.422;6.794;2023-05-10T02:55:02;14.97;;;10.80;;
8626;SDS011;4351;51.422;6.794;2023-05-10T02:57:41;16.40;;;11.93;;
8626;SDS011;4351;51.422;6.794;2023-05-10T03:00:15;16.90;;;11.80;;
8626;SDS011;4351;51.422;6.794;2023-05-10T03:02:46;16.60;;;10.83;;
8626;SDS011;4351;51.422;6.794;2023-05-10T03:05:18;17.93;;;11.53;;
8626;SDS011;4351;51.422;6.794;2023-05-10T03:08:01;15.83;;;10.37;;
8626;SDS011;4351;51.422;6.794;2023-05-10T03:10:45;15.90;;;11.03;;
8626;SDS011;4351;51.422;6.794;2023-05-10T03:13:34;15.23;;;11.10;;
8626;SDS011;4351;51.422;6.794;2023-05-10T03:16:25;15.30;;;10.80;;
8626;SDS011;4351;51.422;6.794;2023-05-10T03:19:06;17.73;;;11.80;;
8626;SDS011;4351;51.422;6.794;2023-05-10T03:21:43;16.07;;;10.90;;
8626;SDS011;4351;51.422;6.794;2023-05-10T03:24:35;17.10;;;11.80;;
8626;SDS011;4351;51.422;6.794;2023-05-10T03:27:13;16.17;;;10.73;;
8626;SDS011;4351;51.422;6.794;2023-05-10T03:29:44;18.60;;;12.53;;
8626;SDS011;4351;51.422;6.794;2023-05-10T03:32:16;17.10;;;11.63;;
8626;SDS011;4351;51.422;6.794;2023-05-10T03:34:52;17.50;;;11.93;;
8626;SDS011;4351;51.422;6.794;2023-05-10T03:37:34;19.27;;;12.83;;
8626;SDS011;4351;51.422;6.794;2023-05-10T03:40:18;21.23;;;13.60;;
8626;SDS011;4351;51.422;6.794;2023-05-10T03:43:02;16.73;;;11.97;;
8626;SDS011;4351;51.422;6.794;2023-05-10T03:45:42;17.80;;;12.00;;
8626;SDS011;4351;51.422;6.794;2023-05-10T03:48:19;20.57;;;13.10;;
8626;SDS011;4351;51.422;6.794;2023-05-10T03:50:58;21.73;;;14.13;;
8626;SDS011;4351;51.422;6.794;2023-05-10T03:53:39;22.77;;;13.63;;
8626;SDS011;4351;51.422;6.794;2023-05-10T03:56:15;21.57;;;14.37;;
8626;SDS011;4351;51.422;6.794;2023-05-10T04:01:49;22.90;;;14.80;;
8626;SDS011;4351;51.422;6.794;2023-05-10T04:04:27;22.63;;;12.97;;
8626;SDS011;4351;51.422;6.794;2023-05-10T04:06:56;22.77;;;14.57;;
8626;SDS011;4351;51.422;6.794;2023-05-10T04:09:36;22.13;;;14.90;;
8626;SDS011;4351;51.422;6.794;2023-05-10T04:12:10;24.30;;;15.27;;
8626;SDS011;4351;51.422;6.794;2023-05-10T04:14:55;21.80;;;13.67;;
8626;SDS011;4351;51.422;6.794;2023-05-10T04:17:42;23.33;;;15.17;;
8626;SDS011;4351;51.422;6.794;2023-05-10T04:20:18;23.73;;;15.37;;
8626;SDS011;4351;51.422;6.794;2023-05-10T04:23:02;24.13;;;15.13;;
8626;SDS011;4351;51.422;6.794;2023-05-10T04:25:48;25.23;;;16.30;;
8626;SDS011;4351;51.422;6.794;2023-05-10T04:28:25;25.53;;;16.53;;
8626;SDS011;4351;51.422;6.794;2023-05-10T04:31:06;24.80;;;16.10;;
8626;SDS011;4351;51.422;6.794;2023-05-10T04:33:47;27.60;;;17.27;;
8626;SDS011;4351;51.422;6.794;2023-05-10T04:36:28;25.20;;;16.30;;
8626;SDS011;4351;51.422;6.794;2023-05-10T04:39:08;31.40;;;19.17;;
8626;SDS011;4351;51.422;6.794;2023-05-10T04:41:41;30.03;;;18.70;;
8626;SDS011;4351;51.422;6.794;2023-05-10T04:44:18;30.10;;;18.00;;
8626;SDS011;4351;51.422;6.794;2023-05-10T04:46:57;26.67;;;17.43;;
8626;SDS011;4351;51.422;6.794;2023-05-10T04:49:35;30.93;;;20.10;;
8626;SDS011;4351;51.422;6.794;2023-05-10T04:52:19;32.23;;;19.97;;
8626;SDS011;4351;51.422;6.794;2023-05-10T04:54:51;35.93;;;21.30;;
8626;SDS011;4351;51.422;6.794;2023-05-10T04:57:19;31.93;;;19.73;;
8626;SDS011;4351;51.422;6.794;2023-05-10T04:59:49;27.57;;;18.37;;
8626;SDS011;4351;51.422;6.794;2023-05-10T05:02:20;30.50;;;19.57;;
8626;SDS011;4351;51.422;6.794;2023-05-10T05:05:03;30.93;;;19.57;;
8626;SDS011;4351;51.422;6.794;2023-05-10T05:07:43;31.77;;;19.80;;
8626;SDS011;4351;51.422;6.794;2023-05-10T05:10:22;32.70;;;20.80;;
8626;SDS011;4351;51.422;6.794;2023-05-10T05:13:03;35.83;;;20.23;;
8626;SDS011;4351;51.422;6.794;2023-05-10T05:15:39;32.73;;;20.10;;
8626;SDS011;4351;51.422;6.794;2023-05-10T05:18:17;30.07;;;19.13;;
8626;SDS011;4351;51.422;6.794;2023-05-10T05:21:00;33.97;;;19.90;;
8626;SDS011;4351;51.422;6.794;2023-05-10T05:23:37;28.03;;;18.07;;
8626;SDS011;4351;51.422;6.794;2023-05-10T05:26:13;35.83;;;20.93;;
8626;SDS011;4351;51.422;6.794;2023-05-10T05:28:52;30.57;;;19.77;;
8626;SDS011;4351;51.422;6.794;2023-05-10T05:31:28;27.43;;;17.57;;
8626;SDS011;4351;51.422;6.794;2023-05-10T05:34:00;34.97;;;20.57;;
8626;SDS011;4351;51.422;6.794;2023-05-10T05:36:39;34.70;;;20.13;;
8626;SDS011;4351;51.422;6.794;2023-05-10T05:39:13;34.60;;;21.97;;
8626;SDS011;4351;51.422;6.794;2023-05-10T05:41:59;30.33;;;19.83;;
8626;SDS011;4351;51.422;6.794;2023-05-10T05:44:34;33.20;;;20.00;;
8626;SDS011;4351;51.422;6.794;2023-05-10T05:47:16;35.03;;;20.10;;
8626;SDS011;4351;51.422;6.794;2023-05-10T05:49:58;32.27;;;20.27;;
8626;SDS011;4351;51.422;6.794;2023-05-10T05:52:34;34.33;;;21.03;;
8626;SDS011;4351;51.422;6.794;2023-05-10T05:55:08;29.50;;;19.67;;
8626;SDS011;4351;51.422;6.794;2023-05-10T05:57:51;37.43;;;22.03;;
8626;SDS011;4351;51.422;6.794;2023-05-10T06:00:25;34.00;;;21.00;;
8626;SDS011;4351;51.422;6.794;2023-05-10T06:03:13;39.23;;;23.40;;
8626;SDS011;4351;51.422;6.794;2023-05-10T06:05:50;39.93;;;22.00;;
8626;SDS011;4351;51.422;6.794;2023-05-10T06:08:36;36.67;;;21.57;;
8626;SDS011;4351;51.422;6.794;2023-05-10T06:11:19;37.90;;;22.53;;
8626;SDS011;4351;51.422;6.794;2023-05-10T06:13:58;35.50;;;22.43;;
8626;SDS011;4351;51.422;6.794;2023-05-10T06:16:32;43.03;;;22.97;;
8626;SDS011;4351;51.422;6.794;2023-05-10T06:19:10;43.10;;;24.63;;
8626;SDS011;4351;51.422;6.794;2023-05-10T06:21:45;47.03;;;24.33;;
8626;SDS011;4351;51.422;6.794;2023-05-10T06:24:33;45.43;;;24.10;;
8626;SDS011;4351;51.422;6.794;2023-05-10T06:27:17;43.40;;;24.27;;
8626;SDS011;4351;51.422;6.794;2023-05-10T06:29:51;45.57;;;24.17;;
8626;SDS011;4351;51.422;6.794;2023-05-10T06:32:44;51.67;;;27.17;;
8626;SDS011;4351;51.422;6.794;2023-05-10T06:35:30;55.40;;;26.73;;
8626;SDS011;4351;51.422;6.794;2023-05-10T06:38:14;46.17;;;25.37;;
8626;SDS011;4351;51.422;6.794;2023-05-10T06:41:02;49.20;;;25.77;;
8626;SDS011;4351;51.422;6.794;2023-05-10T06:43:46;51.40;;;26.33;;
8626;SDS011;4351;51.422;6.794;2023-05-10T06:46:24;46.97;;;23.90;;
8626;SDS011;4351;51.422;6.794;2023-05-10T06:49:03;51.20;;;26.63;;
8626;SDS011;4351;51.422;6.794;2023-05-10T06:51:47;46.17;;;23.73;;
8626;SDS011;4351;51.422;6.794;2023-05-10T06:54:21;51.60;;;25.63;;
8626;SDS011;4351;51.422;6.794;2023-05-10T06:57:06;47.03;;;24.80;;
8626;SDS011;4351;51.422;6.794;2023-05-10T07:00:05;45.10;;;23.70;;
8626;SDS011;4351;51.422;6.794;2023-05-10T07:02:51;43.47;;;24.27;;
8626;SDS011;4351;51.422;6.794;2023-05-10T07:05:27;47.17;;;25.07;;
8626;SDS011;4351;51.422;6.794;2023-05-10T07:08:02;44.77;;;24.90;;
8626;SDS011;4351;51.422;6.794;2023-05-10T07:10:32;45.67;;;24.50;;
8626;SDS011;4351;51.422;6.794;2023-05-10T07:13:05;47.97;;;25.10;;
8626;SDS011;4351;51.422;6.794;2023-05-10T07:15:45;40.10;;;21.93;;
8626;SDS011;4351;51.422;6.794;2023-05-10T07:18:20;40.70;;;22.40;;
8626;SDS011;4351;51.422;6.794;2023-05-10T07:20:56;45.07;;;23.53;;
8626;SDS011;4351;51.422;6.794;2023-05-10T07:23:35;45.57;;;25.03;;
8626;SDS011;4351;51.422;6.794;2023-05-10T07:26:14;48.30;;;24.07;;
8626;SDS011;4351;51.422;6.794;2023-05-10T07:29:01;41.83;;;22.60;;
8626;SDS011;4351;51.422;6.794;2023-05-10T07:31:41;44.80;;;23.33;;
8626;SDS011;4351;51.422;6.794;2023-05-10T07:34:16;37.73;;;21.07;;
8626;SDS011;4351;51.422;6.794;2023-05-10T07:36:54;39.20;;;21.03;;
8626;SDS011;4351;51.422;6.794;2023-05-10T07:39:41;37.67;;;20.97;;
8626;SDS011;4351;51.422;6.794;2023-05-10T07:42:19;37.93;;;20.00;;
8626;SDS011;4351;51.422;6.794;2023-05-10T07:45:00;35.23;;;19.93;;
8626;SDS011;4351;51.422;6.794;2023-05-10T07:47:45;36.07;;;20.23;;
8626;SDS011;4351;51.422;6.794;2023-05-10T07:50:30;39.03;;;21.23;;
8626;SDS011;4351;51.422;6.794;2023-05-10T07:53:11;40.50;;;21.40;;
8626;SDS011;4351;51.422;6.794;2023-05-10T07:55:47;38.70;;;20.47;;
8626;SDS011;4351;51.422;6.794;2023-05-10T07:58:37;39.47;;;20.87;;
8626;SDS011;4351;51.422;6.794;2023-05-10T08:01:14;35.40;;;20.17;;
8626;SDS011;4351;51.422;6.794;2023-05-10T08:03:48;40.53;;;22.20;;
8626;SDS011;4351;51.422;6.794;2023-05-10T08:06:33;40.70;;;22.03;;
8626;SDS011;4351;51.422;6.794;2023-05-10T08:09:06;38.90;;;21.80;;
8626;SDS011;4351;51.422;6.794;2023-05-10T08:11:46;38.47;;;20.33;;
8626;SDS011;4351;51.422;6.794;2023-05-10T08:14:24;38.90;;;21.37;;
8626;SDS011;4351;51.422;6.794;2023-05-10T08:17:02;46.40;;;21.70;;
8626;SDS011;4351;51.422;6.794;2023-05-10T08:19:41;44.87;;;22.40;;
8626;SDS011;4351;51.422;6.794;2023-05-10T08:22:18;41.07;;;21.23;;
8626;SDS011;4351;51.422;6.794;2023-05-10T08:24:58;43.53;;;22.30;;
8626;SDS011;4351;51.422;6.794;2023-05-10T08:27:38;47.13;;;22.70;;
8626;SDS011;4351;51.422;6.794;2023-05-10T08:30:16;43.30;;;21.97;;
8626;SDS011;4351;51.422;6.794;2023-05-10T08:32:58;37.80;;;20.57;;
8626;SDS011;4351;51.422;6.794;2023-05-10T08:35:37;43.67;;;21.67;;
8626;SDS011;4351;51.422;6.794;2023-05-10T08:38:17;45.13;;;21.90;;
8626;SDS011;4351;51.422;6.794;2023-05-10T08:41:01;44.10;;;22.83;;
8626;SDS011;4351;51.422;6.794;2023-05-10T08:43:44;44.70;;;21.63;;
8626;SDS011;4351;51.422;6.794;2023-05-10T08:46:25;39.57;;;21.77;;
8626;SDS011;4351;51.422;6.794;2023-05-10T08:49:00;39.73;;;20.87;;
8626;SDS011;4351;51.422;6.794;2023-05-10T08:51:44;43.33;;;22.17;;
8626;SDS011;4351;51.422;6.794;2023-05-10T08:54:25;39.20;;;21.13;;
8626;SDS011;4351;51.422;6.794;2023-05-10T08:57:04;38.53;;;21.00;;
8626;SDS011;4351;51.422;6.794;2023-05-10T08:59:44;40.57;;;21.23;;
8626;SDS011;4351;51.422;6.794;2023-05-10T09:02:25;40.00;;;20.90;;
8626;SDS011;4351;51.422;6.794;2023-05-10T09:05:11;42.90;;;20.90;;
8626;SDS011;4351;51.422;6.794;2023-05-10T09:08:00;39.37;;;20.93;;
8626;SDS011;4351;51.422;6.794;2023-05-10T09:10:42;35.33;;;20.73;;
8626;SDS011;4351;51.422;6.794;2023-05-10T09:13:27;38.23;;;19.83;;
8626;SDS011;4351;51.422;6.794;2023-05-10T09:16:12;31.03;;;17.80;;
8626;SDS011;4351;51.422;6.794;2023-05-10T09:18:58;34.60;;;17.80;;
8626;SDS011;4351;51.422;6.794;2023-05-10T09:21:33;30.83;;;18.30;;
8626;SDS011;4351;51.422;6.794;2023-05-10T09:24:13;29.73;;;17.80;;
8626;SDS011;4351;51.422;6.794;2023-05-10T09:26:50;32.00;;;17.80;;
8626;SDS011;4351;51.422;6.794;2023-05-10T09:29:41;31.37;;;17.87;;
8626;SDS011;4351;51.422;6.794;2023-05-10T09:32:37;27.50;;;16.67;;
8626;SDS011;4351;51.422;6.794;2023-05-10T09:35:18;27.00;;;17.07;;
8626;SDS011;4351;51.422;6.794;2023-05-10T09:38:02;26.47;;;17.33;;
8626;SDS011;4351;51.422;6.794;2023-05-10T09:40:52;27.47;;;16.63;;
8626;SDS011;4351;51.422;6.794;2023-05-10T09:43:28;26.17;;;16.67;;
8626;SDS011;4351;51.422;6.794;2023-05-10T09:46:16;24.07;;;15.57;;
8626;SDS011;4351;51.422;6.794;2023-05-10T09:48:48;23.73;;;14.97;;
8626;SDS011;4351;51.422;6.794;2023-05-10T10:00:26;25.50;;;15.77;;
8626;SDS011;4351;51.422;6.794;2023-05-10T10:03:03;26.37;;;16.40;;
8626;SDS011;4351;51.422;6.794;2023-05-10T10:05:38;26.73;;;16.17;;
8626;SDS011;4351;51.422;6.794;2023-05-10T10:08:17;24.53;;;15.00;;
8626;SDS011;4351;51.422;6.794;2023-05-10T10:10:58;27.30;;;16.90;;
8626;SDS011;4351;51.422;6.794;2023-05-10T10:13:35;24.93;;;15.67;;
8626;SDS011;4351;51.422;6.794;2023-05-10T10:16:13;29.80;;;15.50;;
8626;SDS011;4351;51.422;6.794;2023-05-10T10:18:53;24.13;;;14.63;;
8626;SDS011;4351;51.422;6.794;2023-05-10T10:21:37;23.33;;;14.27;;
8626;SDS011;4351;51.422;6.794;2023-05-10T10:24:19;24.13;;;14.63;;
8626;SDS011;4351;51.422;6.794;2023-05-10T10:27:02;20.87;;;13.07;;
8626;SDS011;4351;51.422;6.794;2023-05-10T10:29:55;28.83;;;15.67;;
8626;SDS011;4351;51.422;6.794;2023-05-10T10:32:38;22.10;;;14.37;;
8626;SDS011;4351;51.422;6.794;2023-05-10T10:35:35;27.27;;;14.73;;
8626;SDS011;4351;51.422;6.794;2023-05-10T10:38:14;21.77;;;14.37;;
8626;SDS011;4351;51.422;6.794;2023-05-10T10:40:57;21.73;;;13.63;;
8626;SDS011;4351;51.422;6.794;2023-05-10T10:43:36;24.60;;;12.70;;
8626;SDS011;4351;51.422;6.794;2023-05-10T10:46:15;25.20;;;15.13;;
8626;SDS011;4351;51.422;6.794;2023-05-10T10:49:08;26.00;;;14.73;;
8626;SDS011;4351;51.422;6.794;2023-05-10T10:54:56;24.80;;;15.37;;
8626;SDS011;4351;51.422;6.794;2023-05-10T10:57:44;25.03;;;16.23;;
8626;SDS011;4351;51.422;6.794;2023-05-10T11:00:33;28.17;;;17.40;;
8626;SDS011;4351;51.422;6.794;2023-05-10T11:03:19;30.80;;;18.00;;
8626;SDS011;4351;51.422;6.794;2023-05-10T11:05:57;28.03;;;17.70;;
8626;SDS011;4351;51.422;6.794;2023-05-10T11:08:41;27.47;;;18.10;;
8626;SDS011;4351;51.422;6.794;2023-05-10T11:11:21;32.13;;;19.20;;
8626;SDS011;4351;51.422;6.794;2023-05-10T11:13:50;29.07;;;18.43;;
8626;SDS011;4351;51.422;6.794;2023-05-10T11:16:22;32.87;;;19.23;;
8626;SDS011;4351;51.422;6.794;2023-05-10T11:19:01;30.47;;;17.53;;
8626;SDS011;4351;51.422;6.794;2023-05-10T11:21:47;24.57;;;15.37;;
8626;SDS011;4351;51.422;6.794;2023-05-10T11:24:23;23.17;;;13.77;;
8626;SDS011;4351;51.422;6.794;2023-05-10T11:27:09;17.47;;;12.47;;
8626;SDS011;4351;51.422;6.794;2023-05-10T11:29:50;20.47;;;12.33;;
8626;SDS011;4351;51.422;6.794;2023-05-10T11:32:29;23.17;;;13.30;;
8626;SDS011;4351;51.422;6.794;2023-05-10T11:35:08;26.77;;;14.13;;
8626;SDS011;4351;51.422;6.794;2023-05-10T11:37:44;18.07;;;11.93;;
8626;SDS011;4351;51.422;6.794;2023-05-10T11:40:27;19.87;;;12.87;;
8626;SDS011;4351;51.422;6.794;2023-05-10T11:43:08;16.17;;;11.37;;
8626;SDS011;4351;51.422;6.794;2023-05-10T11:45:54;16.83;;;12.60;;
8626;SDS011;4351;51.422;6.794;2023-05-10T11:48:28;19.17;;;12.30;;
8626;SDS011;4351;51.422;6.794;2023-05-10T11:51:06;15.60;;;11.43;;
8626;SDS011;4351;51.422;6.794;2023-05-10T11:53:49;13.73;;;10.10;;
8626;SDS011;4351;51.422;6.794;2023-05-10T11:56:28;13.23;;;8.83;;
8626;SDS011;4351;51.422;6.794;2023-05-10T11:59:14;15.20;;;8.47;;
8626;SDS011;4351;51.422;6.794;2023-05-10T12:01:58;10.87;;;6.83;;
8626;SDS011;4351;51.422;6.794;2023-05-10T12:04:37;16.73;;;7.87;;
8626;SDS011;4351;51.422;6.794;2023-05-10T12:07:16;10.70;;;6.50;;
8626;SDS011;4351;51.422;6.794;2023-05-10T12:10:03;13.23;;;7.87;;
8626;SDS011;4351;51.422;6.794;2023-05-10T12:12:45;13.53;;;8.00;;
8626;SDS011;4351;51.422;6.794;2023-05-10T12:15:29;9.60;;;6.80;;
8626;SDS011;4351;51.422;6.794;2023-05-10T12:18:08;14.40;;;7.43;;
8626;SDS011;4351;51.422;6.794;2023-05-10T12:20:48;9.03;;;6.60;;
8626;SDS011;4351;51.422;6.794;2023-05-10T12:23:30;9.90;;;6.80;;
8626;SDS011;4351;51.422;6.794;2023-05-10T12:26:10;10.20;;;7.23;;
8626;SDS011;4351;51.422;6.794;2023-05-10T12:28:50;10.37;;;7.50;;
8626;SDS011;4351;51.422;6.794;2023-05-10T12:31:33;7.70;;;6.50;;
8626;SDS011;4351;51.422;6.794;2023-05-10T12:34:22;8.47;;;6.53;;
8626;SDS011;4351;51.422;6.794;2023-05-10T12:37:02;12.60;;;7.10;;
8626;SDS011;4351;51.422;6.794;2023-05-10T12:39:49;10.90;;;7.20;;
8626;SDS011;4351;51.422;6.794;2023-05-10T12:42:26;11.30;;;8.03;;
8626;SDS011;4351;51.422;6.794;2023-05-10T12:45:08;13.53;;;7.93;;
8626;SDS011;4351;51.422;6.794;2023-05-10T12:47:54;11.23;;;7.97;;
8626;SDS011;4351;51.422;6.794;2023-05-10T12:50:33;9.67;;;6.27;;
8626;SDS011;4351;51.422;6.794;2023-05-10T12:53:09;10.20;;;7.50;;
8626;SDS011;4351;51.422;6.794;2023-05-10T12:55:50;8.23;;;5.90;;
8626;SDS011;4351;51.422;6.794;2023-05-10T12:58:30;7.37;;;5.30;;
8626;SDS011;4351;51.422;6.794;2023-05-10T13:01:19;9.87;;;6.80;;
8626;SDS011;4351;51.422;6.794;2023-05-10T13:04:06;9.30;;;5.80;;
8626;SDS011;4351;51.422;6.794;2023-05-10T13:06:42;9.30;;;6.57;;
8626;SDS011;4351;51.422;6.794;2023-05-10T13:09:11;10.60;;;8.00;;
8626;SDS011;4351;51.422;6.794;2023-05-10T13:11:43;10.80;;;7.50;;
8626;SDS011;4351;51.422;6.794;2023-05-10T13:14:24;10.00;;;7.50;;
8626;SDS011;4351;51.422;6.794;2023-05-10T13:17:08;9.00;;;6.40;;
8626;SDS011;4351;51.422;6.794;2023-05-10T13:19:46;8.13;;;5.90;;
8626;SDS011;4351;51.422;6.794;2023-05-10T13:22:27;12.63;;;6.77;;
8626;SDS011;4351;51.422;6.794;2023-05-10T13:25:20;8.77;;;5.37;;
8626;SDS011;4351;51.422;6.794;2023-05-10T13:27:58;8.17;;;5.60;;
8626;SDS011;4351;51.422;6.794;2023-05-10T13:30:44;10.10;;;7.50;;
8626;SDS011;4351;51.422;6.794;2023-05-10T13:33:23;10.03;;;6.87;;
8626;SDS011;4351;51.422;6.794;2023-05-10T13:36:09;12.47;;;7.23;;
8626;SDS011;4351;51.422;6.794;2023-05-10T13:38:50;9.40;;;7.33;;
8626;SDS011;4351;51.422;6.794;2023-05-10T13:41:21;8.63;;;6.40;;
8626;SDS011;4351;51.422;6.794;2023-05-10T13:43:58;10.00;;;6.57;;
8626;SDS011;4351;51.422;6.794;2023-05-10T13:46:38;9.50;;;7.00;;
8626;SDS011;4351;51.422;6.794;2023-05-10T13:49:13;13.03;;;7.63;;
8626;SDS011;4351;51.422;6.794;2023-05-10T13:51:42;8.37;;;6.67;;
8626;SDS011;4351;51.422;6.794;2023-05-10T13:54:16;10.73;;;6.73;;
8626;SDS011;4351;51.422;6.794;2023-05-10T13:57:00;8.67;;;6.73;;
8626;SDS011;4351;51.422;6.794;2023-05-10T13:59:33;13.17;;;7.60;;
8626;SDS011;4351;51.422;6.794;2023-05-10T14:02:10;10.03;;;7.20;;
8626;SDS011;4351;51.422;6.794;2023-05-10T14:04:49;9.53;;;7.33;;
8626;SDS011;4351;51.422;6.794;2023-05-10T14:07:21;8.87;;;6.87;;
8626;SDS011;4351;51.422;6.794;2023-05-10T14:09:58;11.30;;;7.87;;
8626;SDS011;4351;51.422;6.794;2023-05-10T14:12:42;11.20;;;7.73;;
8626;SDS011;4351;51.422;6.794;2023-05-10T14:15:22;13.00;;;8.53;;
8626;SDS011;4351;51.422;6.794;2023-05-10T14:18:03;10.00;;;7.63;;
8626;SDS011;4351;51.422;6.794;2023-05-10T14:20:50;10.03;;;8.10;;
8626;SDS011;4351;51.422;6.794;2023-05-10T14:23:25;12.77;;;9.17;;
8626;SDS011;4351;51.422;6.794;2023-05-10T14:25:57;11.70;;;8.03;;
8626;SDS011;4351;51.422;6.794;2023-05-10T14:28:32;8.33;;;6.83;;
8626;SDS011;4351;51.422;6.794;2023-05-10T14:31:02;10.93;;;6.80;;
8626;SDS011;4351;51.422;6.794;2023-05-10T14:33:38;9.07;;;6.53;;
8626;SDS011;4351;51.422;6.794;2023-05-10T14:36:13;10.17;;;7.27;;
8626;SDS011;4351;51.422;6.794;2023-05-10T14:38:49;10.60;;;7.37;;
8626;SDS011;4351;51.422;6.794;2023-05-10T14:41:31;10.80;;;6.83;;
8626;SDS011;4351;51.422;6.794;2023-05-10T14:44:09;7.43;;;6.37;;
8626;SDS011;4351;51.422;6.794;2023-05-10T14:46:46;12.30;;;8.93;;
8626;SDS011;4351;51.422;6.794;2023-05-10T14:49:25;10.37;;;7.53;;
8626;SDS011;4351;51.422;6.794;2023-05-10T14:52:11;13.90;;;8.67;;
8626;SDS011;4351;51.422;6.794;2023-05-10T14:54:53;11.27;;;8.27;;
8626;SDS011;4351;51.422;6.794;2023-05-10T14:57:24;11.97;;;8.60;;
8626;SDS011;4351;51.422;6.794;2023-05-10T14:59:59;17.00;;;12.50;;
8626;SDS011;4351;51.422;6.794;2023-05-10T15:02:34;14.27;;;11.10;;
8626;SDS011;4351;51.422;6.794;2023-05-10T15:05:12;15.80;;;11.73;;
8626;SDS011;4351;51.422;6.794;2023-05-10T15:07:54;16.67;;;12.23;;
8626;SDS011;4351;51.422;6.794;2023-05-10T15:10:32;19.47;;;12.97;;
8626;SDS011;4351;51.422;6.794;2023-05-10T15:13:11;22.20;;;14.70;;
8626;SDS011;4351;51.422;6.794;2023-05-10T15:15:43;21.47;;;14.70;;
8626;SDS011;4351;51.422;6.794;2023-05-10T15:18:23;17.97;;;13.70;;
8626;SDS011;4351;51.422;6.794;2023-05-10T15:21:05;19.17;;;14.07;;
8626;SDS011;4351;51.422;6.794;2023-05-10T15:23:46;19.07;;;14.60;;
8626;SDS011;4351;51.422;6.794;2023-05-10T15:26:20;18.63;;;14.37;;
8626;SDS011;4351;51.422;6.794;2023-05-10T15:29:03;23.03;;;15.30;;
8626;SDS011;4351;51.422;6.794;2023-05-10T15:31:45;18.47;;;14.10;;
8626;SDS011;4351;51.422;6.794;2023-05-10T15:34:23;17.57;;;13.40;;
8626;SDS011;4351;51.422;6.794;2023-05-10T15:37:00;13.40;;;9.23;;
8626;SDS011;4351;51.422;6.794;2023-05-10T15:39:28;6.20;;;3.80;;
8626;SDS011;4351;51.422;6.794;2023-05-10T15:41:59;3.97;;;2.80;;
8626;SDS011;4351;51.422;6.794;2023-05-10T15:44:37;4.37;;;2.97;;
8626;SDS011;4351;51.422;6.794;2023-05-10T15:47:16;5.70;;;3.10;;
8626;SDS011;4351;51.422;6.794;2023-05-10T15:49:58;4.97;;;2.47;;
8626;SDS011;4351;51.422;6.794;2023-05-10T15:52:41;4.50;;;1.90;;
8626;SDS011;4351;51.422;6.794;2023-05-10T15:55:18;7.53;;;2.97;;
8626;SDS011;4351;51.422;6.794;2023-05-10T15:58:02;6.50;;;2.70;;
8626;SDS011;4351;51.422;6.794;2023-05-10T16:00:43;3.50;;;2.47;;
8626;SDS011;4351;51.422;6.794;2023-05-10T16:03:24;6.80;;;3.10;;
8626;SDS011;4351;51.422;6.794;2023-05-10T16:06:10;6.57;;;4.03;;
8626;SDS011;4351;51.422;6.794;2023-05-10T16:08:54;7.03;;;3.10;;
8626;SDS011;4351;51.422;6.794;2023-05-10T16:11:31;4.60;;;3.07;;
8626;SDS011;4351;51.422;6.794;2023-05-10T16:14:20;5.57;;;3.03;;
8626;SDS011;4351;51.422;6.794;2023-05-10T16:17:05;5.63;;;2.97;;
8626;SDS011;4351;51.422;6.794;2023-05-10T16:19:42;6.13;;;3.70;;
8626;SDS011;4351;51.422;6.794;2023-05-10T16:22:21;4.90;;;3.73;;
8626;SDS011;4351;51.422;6.794;2023-05-10T16:25:07;5.60;;;4.17;;